Time;durP1;ratioP1;P1;durP2;ratioP2;P2;SDS_P1;SDS_P2;PMS_P1;PMS_P2;Temp;Humidity;BMP_temperature;BMP_pressure;BME280_temperature;BME280_humidity;BME280_pressure;Samples;Min_cycle;Max_cycle;Signal;HPM_P1;HPM_P2
2024/01/11 00:01:57;;;;;;;28.10;18.45;;;;;;;-3.04;81.18;103112.84;5101043;28;20544;-67
2024/01/11 00:04:45;;;;;;;29.70;18.33;;;;;;;-2.98;80.72;103108.00;5110967;28;20113;-67
2024/01/11 00:07:33;;;;;;;31.75;17.98;;;;;;;-2.97;80.70;103105.22;5062114;28;20036;-67
2024/01/11 00:10:22;;;;;;;27.25;17.42;;;;;;;-2.98;80.15;103108.00;5091445;28;20056;-67
2024/01/11 00:13:10;;;;;;;26.65;17.77;;;;;;;-3.06;80.91;103113.94;5071635;28;20070;-68
2024/01/11 00:15:58;;;;;;;28.70;18.25;;;;;;;-3.07;81.13;103115.75;5109934;28;20172;-68
2024/01/11 00:18:46;;;;;;;29.73;17.83;;;;;;;-3.10;80.75;103115.13;5109938;28;20484;-67
2024/01/11 00:21:34;;;;;;;28.13;18.02;;;;;;;-3.15;81.44;103110.19;5099588;28;20128;-68
2024/01/11 00:24:25;;;;;;;29.58;18.85;;;;;;;-3.20;81.70;103112.34;5101067;28;20039;-68
2024/01/11 00:27:13;;;;;;;28.65;18.05;;;;;;;-3.20;81.91;103107.03;5098499;27;20042;-68
2024/01/11 00:30:01;;;;;;;27.73;17.70;;;;;;;-3.30;82.22;103109.56;5067277;28;20040;-67
2024/01/11 00:32:49;;;;;;;28.30;18.42;;;;;;;-3.33;82.79;103109.81;5093748;28;20048;-68
2024/01/11 00:35:37;;;;;;;27.45;17.10;;;;;;;-3.30;82.75;103116.72;5103642;28;20113;-67
2024/01/11 00:38:25;;;;;;;28.73;18.77;;;;;;;-3.36;82.77;103115.38;5088281;28;20077;-66
2024/01/11 00:41:13;;;;;;;30.83;18.65;;;;;;;-3.41;83.03;103117.56;5095425;28;20152;-68
2024/01/11 00:44:02;;;;;;;29.67;18.77;;;;;;;-3.43;83.27;103115.00;5099624;28;20092;-67
2024/01/11 00:46:50;;;;;;;29.58;17.88;;;;;;;-3.45;83.12;103116.94;5116232;28;20040;-67
2024/01/11 00:49:37;;;;;;;28.75;18.20;;;;;;;-3.43;83.13;103115.00;5095591;28;20061;-67
2024/01/11 00:52:26;;;;;;;28.83;17.92;;;;;;;-3.34;82.73;103102.78;5097498;28;20050;-66
2024/01/11 00:55:16;;;;;;;27.13;17.95;;;;;;;-3.31;82.12;103105.22;5097922;27;20035;-67
2024/01/11 00:58:04;;;;;;;29.17;18.00;;;;;;;-3.36;82.36;103109.22;5093702;28;20048;-68
2024/01/11 01:00:53;;;;;;;32.22;19.65;;;;;;;-3.33;82.21;103114.31;5099321;28;20487;-68
2024/01/11 01:03:41;;;;;;;32.85;19.23;;;;;;;-3.28;82.00;103112.13;5087427;28;20043;-68
2024/01/11 01:06:29;;;;;;;31.88;18.70;;;;;;;-3.27;81.87;103108.47;5101412;28;20565;-68
2024/01/11 01:09:18;;;;;;;31.67;18.98;;;;;;;-3.37;81.81;103119.00;5114192;28;20572;-68
2024/01/11 01:12:06;;;;;;;31.33;19.77;;;;;;;-3.38;82.99;103124.47;5097780;28;20048;-70
2024/01/11 01:14:55;;;;;;;28.25;17.80;;;;;;;-3.40;83.25;103123.75;5065742;27;20416;-66
2024/01/11 01:17:43;;;;;;;30.95;18.38;;;;;;;-3.41;82.64;103120.22;5079991;28;20118;-68
2024/01/11 01:20:31;;;;;;;28.20;17.58;;;;;;;-3.45;83.42;103119.59;5100027;28;20044;-68
2024/01/11 01:23:19;;;;;;;30.70;18.67;;;;;;;-3.37;82.77;103118.16;5100997;28;20502;-69
2024/01/11 01:26:07;;;;;;;28.65;18.92;;;;;;;-3.31;82.28;103134.53;5098933;28;20047;-67
2024/01/11 01:28:55;;;;;;;31.80;19.60;;;;;;;-3.33;82.26;103130.28;5099880;28;20070;-67
2024/01/11 01:31:43;;;;;;;31.02;18.95;;;;;;;-3.30;82.10;103130.03;5099682;28;20062;-68
2024/01/11 01:34:31;;;;;;;31.15;19.10;;;;;;;-3.30;81.63;103130.88;5112732;27;20105;-68
2024/01/11 01:37:19;;;;;;;31.10;19.63;;;;;;;-3.37;81.90;103139.50;5097056;28;20124;-67
2024/01/11 01:40:08;;;;;;;35.30;19.92;;;;;;;-3.41;82.26;103143.38;5114533;28;20101;-67
2024/01/11 01:43:00;;;;;;;33.72;20.73;;;;;;;-3.51;83.52;103151.19;5098977;28;20058;-66
2024/01/11 01:45:48;;;;;;;30.73;19.38;;;;;;;-3.49;83.31;103158.13;5078858;28;20055;-68
2024/01/11 01:48:37;;;;;;;31.23;19.92;;;;;;;-3.53;83.08;103159.34;5119829;27;20525;-67
2024/01/11 01:51:27;;;;;;;31.80;20.50;;;;;;;-3.58;83.16;103157.97;5086263;28;20495;-67
2024/01/11 01:54:15;;;;;;;30.98;20.00;;;;;;;-3.59;83.74;103145.63;5101849;28;20039;-68
2024/01/11 01:57:04;;;;;;;34.63;20.17;;;;;;;-3.44;83.82;103147.09;5105090;28;20543;-68
2024/01/11 01:59:53;;;;;;;33.00;20.10;;;;;;;-3.31;82.59;103144.34;5078674;28;20522;-68
2024/01/11 02:02:44;;;;;;;30.83;19.63;;;;;;;-3.35;82.25;103148.22;5085749;28;20039;-67
2024/01/11 02:05:33;;;;;;;31.30;19.60;;;;;;;-3.46;82.55;103146.41;5091439;28;20123;-67
2024/01/11 02:08:23;;;;;;;35.42;20.88;;;;;;;-3.49;82.87;103146.59;5077869;28;20066;-67
2024/01/11 02:11:11;;;;;;;33.60;21.20;;;;;;;-3.50;82.83;103151.09;5077766;28;20044;-66
2024/01/11 02:14:00;;;;;;;37.05;20.38;;;;;;;-3.55;83.76;103155.09;5079257;28;20056;-68
2024/01/11 02:16:48;;;;;;;32.45;19.75;;;;;;;-3.58;84.16;103155.31;5063040;28;20040;-69
2024/01/11 02:19:36;;;;;;;30.95;19.77;;;;;;;-3.56;83.50;103167.56;5078747;28;20131;-67
2024/01/11 02:22:34;;;;;;;30.88;20.10;;;;;;;-3.56;83.88;103166.69;5063577;28;20067;-67
2024/01/11 02:25:22;;;;;;;33.45;20.30;;;;;;;-3.58;84.64;103166.84;5072108;28;20043;-67
2024/01/11 02:28:11;;;;;;;32.28;20.52;;;;;;;-3.55;84.13;103161.25;5097741;28;20040;-68
2024/01/11 02:30:59;;;;;;;31.80;20.20;;;;;;;-3.58;85.38;103158.84;5112835;28;20054;-68
2024/01/11 02:33:48;;;;;;;32.20;19.48;;;;;;;-3.67;84.95;103159.53;5111598;28;20456;-67
2024/01/11 02:36:36;;;;;;;30.20;19.52;;;;;;;-3.77;86.39;103154.06;5110652;28;20225;-67
2024/01/11 02:39:25;;;;;;;30.58;18.95;;;;;;;-3.70;85.67;103154.44;5099453;28;20403;-69
2024/01/11 02:42:13;;;;;;;28.80;18.48;;;;;;;-3.70;86.57;103152.63;5068060;28;20040;-68
2024/01/11 02:45:03;;;;;;;30.77;19.02;;;;;;;-3.66;85.42;103155.88;5121140;28;20098;-64
2024/01/11 02:47:51;;;;;;;29.08;19.02;;;;;;;-3.71;85.90;103150.06;5116211;28;20047;-66
2024/01/11 02:50:39;;;;;;;28.17;18.50;;;;;;;-3.76;85.49;103144.25;5110814;28;20073;-66
2024/01/11 02:53:28;;;;;;;31.25;19.60;;;;;;;-3.85;85.82;103156.44;5112880;27;20503;-68
2024/01/11 02:56:16;;;;;;;27.65;18.33;;;;;;;-3.90;85.52;103162.09;5108268;28;20237;-61
2024/01/11 02:59:04;;;;;;;30.67;19.17;;;;;;;-3.92;86.20;103153.41;5124633;28;20047;-65
2024/01/11 03:01:52;;;;;;;32.10;18.65;;;;;;;-3.94;86.28;103155.31;5125888;28;20061;-59
2024/01/11 03:04:40;;;;;;;33.50;18.80;;;;;;;-3.89;87.25;103150.50;5102142;28;20040;-67
2024/01/11 03:07:29;;;;;;;30.42;18.95;;;;;;;-3.88;86.34;103162.84;5075879;28;20040;-66
2024/01/11 03:10:17;;;;;;;30.58;18.15;;;;;;;-3.92;86.19;103158.72;5084115;28;20043;-68
2024/01/11 03:13:06;;;;;;;30.27;18.58;;;;;;;-3.97;86.25;103168.88;5084125;28;20069;-67
2024/01/11 03:15:54;;;;;;;30.42;18.50;;;;;;;-3.96;87.19;103162.56;5070225;28;20066;-67
2024/01/11 03:18:44;;;;;;;29.73;18.73;;;;;;;-3.92;86.26;103161.38;5102644;28;20044;-69
2024/01/11 03:21:32;;;;;;;29.98;18.98;;;;;;;-3.94;86.10;103152.66;5098356;28;20184;-68
2024/01/11 03:24:20;;;;;;;27.80;17.75;;;;;;;-3.87;87.36;103140.59;5099488;28;20381;-68
2024/01/11 03:27:08;;;;;;;28.30;16.75;;;;;;;-3.89;86.44;103142.50;5104417;28;20419;-67
2024/01/11 03:29:56;;;;;;;29.05;17.17;;;;;;;-3.84;86.42;103141.31;5118181;28;20236;-67
2024/01/11 03:32:44;;;;;;;30.73;17.98;;;;;;;-3.83;85.69;103143.84;5114679;28;20040;-68
2024/01/11 03:35:32;;;;;;;27.52;16.65;;;;;;;-3.89;85.55;103137.19;5112163;28;20165;-67
2024/01/11 03:38:20;;;;;;;27.60;17.08;;;;;;;-3.93;85.88;103133.03;5110781;28;20051;-67
2024/01/11 03:41:09;;;;;;;27.45;17.55;;;;;;;-4.00;86.29;103152.25;5111242;28;20415;-66
2024/01/11 03:43:58;;;;;;;30.70;17.52;;;;;;;-4.03;87.10;103153.34;5097646;28;20051;-67
2024/01/11 03:46:46;;;;;;;26.67;16.38;;;;;;;-4.09;87.55;103154.66;5091995;28;20538;-69
2024/01/11 03:49:34;;;;;;;27.42;16.77;;;;;;;-4.13;87.28;103152.34;5076812;28;20566;-67
2024/01/11 03:52:22;;;;;;;26.38;15.93;;;;;;;-4.12;87.37;103154.03;5081221;28;20129;-68
2024/01/11 03:55:10;;;;;;;25.40;16.55;;;;;;;-4.11;88.28;103140.59;5107124;28;20154;-68
2024/01/11 03:57:58;;;;;;;27.05;17.75;;;;;;;-4.10;87.86;103152.09;5102033;27;20404;-68
2024/01/11 04:00:46;;;;;;;26.58;16.55;;;;;;;-4.18;88.68;103155.34;5115925;28;20228;-67
2024/01/11 04:03:34;;;;;;;24.65;16.38;;;;;;;-4.29;88.12;103173.91;5115049;28;20055;-67
2024/01/11 04:06:23;;;;;;;28.30;15.18;;;;;;;-4.41;89.31;103186.28;5100435;28;20128;-68
2024/01/11 04:09:12;;;;;;;25.92;16.33;;;;;;;-4.44;91.00;103181.19;5100392;28;20492;-67
2024/01/11 04:12:00;;;;;;;26.65;16.02;;;;;;;-4.40;90.75;103185.34;5115695;28;20457;-67
2024/01/11 04:14:48;;;;;;;26.38;15.77;;;;;;;-4.34;91.36;103184.88;5119343;27;20035;-68
2024/01/11 04:17:36;;;;;;;27.20;16.08;;;;;;;-4.36;90.17;103173.47;5135569;27;20062;-68
2024/01/11 04:20:24;;;;;;;23.30;15.02;;;;;;;-4.29;91.36;103168.56;5115938;27;20036;-67
2024/01/11 04:23:12;;;;;;;26.17;15.18;;;;;;;-4.28;89.98;103187.09;5115224;28;20089;-67
2024/01/11 04:26:00;;;;;;;27.98;16.02;;;;;;;-4.36;90.57;103194.78;5134318;27;20039;-68
2024/01/11 04:28:51;;;;;;;24.75;15.55;;;;;;;-4.43;91.76;103201.50;5106066;27;20058;-69
2024/01/11 04:31:39;;;;;;;24.58;15.70;;;;;;;-4.34;92.89;103181.38;5086350;28;20112;-68
2024/01/11 04:34:27;;;;;;;27.75;16.88;;;;;;;-4.34;92.62;103176.88;5114175;28;20634;-67
2024/01/11 04:37:15;;;;;;;23.92;15.13;;;;;;;-4.40;93.12;103169.38;5100737;28;20135;-67
2024/01/11 04:40:04;;;;;;;23.58;14.63;;;;;;;-4.35;92.93;103177.03;5100041;27;20036;-68
2024/01/11 04:42:52;;;;;;;24.80;15.10;;;;;;;-4.30;92.66;103183.69;5113731;27;20035;-68
2024/01/11 04:45:40;;;;;;;23.35;15.15;;;;;;;-4.36;92.73;103178.81;5085842;28;20093;-68
2024/01/11 04:48:28;;;;;;;26.17;15.70;;;;;;;-4.35;93.00;103196.50;5116654;28;20058;-68
2024/01/11 04:51:17;;;;;;;23.58;15.32;;;;;;;-4.31;93.56;103200.59;5114495;27;20108;-70
2024/01/11 04:54:05;;;;;;;24.00;15.63;;;;;;;-4.29;93.26;103204.00;5072531;28;20543;-68
2024/01/11 04:56:53;;;;;;;24.02;15.35;;;;;;;-4.24;93.61;103213.47;5115914;28;20517;-69
2024/01/11 04:59:41;;;;;;;25.95;16.10;;;;;;;-4.22;93.35;103217.72;5114469;28;20044;-68
2024/01/11 05:02:29;;;;;;;27.13;16.58;;;;;;;-4.26;93.19;103212.75;5115255;27;20039;-68
2024/01/11 05:05:17;;;;;;;23.67;15.30;;;;;;;-4.32;92.67;103214.88;5113823;28;20048;-68
2024/01/11 05:08:05;;;;;;;23.38;15.43;;;;;;;-4.37;93.80;103218.84;5099331;28;20040;-68
2024/01/11 05:10:53;;;;;;;23.35;14.85;;;;;;;-4.39;94.99;103216.28;5112553;28;20122;-68
2024/01/11 05:13:42;;;;;;;26.13;15.60;;;;;;;-4.36;94.09;103220.53;5110809;28;20528;-68
2024/01/11 05:16:30;;;;;;;23.05;15.45;;;;;;;-4.41;94.56;103220.88;5105555;27;20089;-68
2024/01/11 05:19:18;;;;;;;25.92;16.10;;;;;;;-4.47;94.70;103226.66;5092245;27;20084;-69
2024/01/11 05:22:06;;;;;;;24.52;15.07;;;;;;;-4.52;97.25;103220.81;5087629;28;20047;-67
2024/01/11 05:24:54;;;;;;;23.38;15.23;;;;;;;-4.44;96.15;103229.09;5071584;28;20117;-68
2024/01/11 05:27:42;;;;;;;26.05;15.50;;;;;;;-4.40;97.03;103222.59;5077370;28;20178;-68
2024/01/11 05:30:30;;;;;;;25.23;14.90;;;;;;;-4.35;95.29;103235.56;5079088;27;20496;-69
2024/01/11 05:33:19;;;;;;;23.80;14.60;;;;;;;-4.37;95.85;103227.69;5094799;28;20150;-68
2024/01/11 05:36:07;;;;;;;26.77;15.73;;;;;;;-4.29;96.49;103225.31;5118522;27;20482;-68
2024/01/11 05:38:55;;;;;;;24.02;14.90;;;;;;;-4.15;95.81;103212.81;5086792;27;20155;-68
2024/01/11 05:41:46;;;;;;;22.90;14.70;;;;;;;-4.03;96.77;103214.59;5114822;27;20035;-68
2024/01/11 05:44:34;;;;;;;25.50;15.43;;;;;;;-3.94;94.94;103226.38;5126109;27;20077;-68
2024/01/11 05:47:22;;;;;;;24.73;15.48;;;;;;;-3.89;95.55;103230.41;5133916;27;20047;-69
2024/01/11 05:50:12;;;;;;;24.90;15.80;;;;;;;-3.86;94.14;103224.00;5085890;28;20122;-68
2024/01/11 05:53:00;;;;;;;23.98;15.65;;;;;;;-3.84;93.99;103231.88;5090756;28;20051;-68
2024/01/11 05:55:48;;;;;;;23.25;15.43;;;;;;;-3.91;93.31;103242.97;5110459;28;20054;-69
2024/01/11 05:58:40;;;;;;;22.58;14.95;;;;;;;-4.14;93.47;103252.63;5114210;28;20095;-69
2024/01/11 06:01:28;;;;;;;27.05;15.93;;;;;;;-4.28;94.79;103253.63;5113349;27;20515;-70
2024/01/11 06:04:17;;;;;;;23.30;15.73;;;;;;;-4.36;96.19;103249.81;5114178;28;20419;-70
2024/01/11 06:07:05;;;;;;;24.90;15.80;;;;;;;-4.34;97.52;103246.06;5130581;27;20047;-68
2024/01/11 06:09:53;;;;;;;24.70;15.20;;;;;;;-4.24;97.89;103240.09;5118787;27;20074;-69
2024/01/11 06:12:41;;;;;;;25.58;15.45;;;;;;;-4.13;97.32;103238.38;5087353;28;20496;-68
2024/01/11 06:15:29;;;;;;;24.60;15.18;;;;;;;-3.96;97.55;103245.13;5077349;28;20518;-68
2024/01/11 06:18:17;;;;;;;23.65;15.00;;;;;;;-3.92;96.31;103241.28;5078607;28;20043;-69
2024/01/11 06:21:06;;;;;;;25.52;15.85;;;;;;;-3.88;95.38;103242.72;5052192;28;20045;-70
2024/01/11 06:23:54;;;;;;;24.13;14.93;;;;;;;-3.82;95.86;103224.59;5112148;27;20048;-69
2024/01/11 06:26:42;;;;;;;21.92;15.07;;;;;;;-3.79;95.43;103240.38;5064109;28;20044;-69
2024/01/11 06:29:30;;;;;;;23.13;15.48;;;;;;;-3.80;95.22;103249.31;5077852;28;20575;-68
2024/01/11 06:32:18;;;;;;;23.25;14.73;;;;;;;-3.80;95.12;103251.97;5093073;28;20063;-68
2024/01/11 06:35:07;;;;;;;26.38;16.00;;;;;;;-3.81;94.84;103252.94;5095025;28;20058;-69
2024/01/11 06:37:55;;;;;;;24.95;14.95;;;;;;;-3.88;93.88;103258.72;5093308;28;20039;-69
2024/01/11 06:40:43;;;;;;;24.20;15.85;;;;;;;-3.89;94.71;103266.84;5093952;28;20143;-68
2024/01/11 06:43:31;;;;;;;23.58;15.50;;;;;;;-3.97;94.24;103270.06;5103050;27;20152;-67
2024/01/11 06:46:21;;;;;;;27.75;15.35;;;;;;;-3.97;95.24;103270.06;5133904;27;20066;-71
2024/01/11 06:49:09;;;;;;;23.15;15.23;;;;;;;-4.00;95.07;103264.94;5104986;27;20047;-69
2024/01/11 06:51:57;;;;;;;22.58;14.63;;;;;;;-4.04;94.48;103263.47;5114295;28;20054;-66
2024/01/11 06:54:45;;;;;;;23.30;15.25;;;;;;;-4.08;95.31;103269.97;5098958;28;20040;-70
2024/01/11 06:57:33;;;;;;;25.33;15.60;;;;;;;-4.10;95.32;103279.88;5113196;28;20142;-68
2024/01/11 07:00:21;;;;;;;27.38;15.73;;;;;;;-4.14;93.56;103307.69;5093583;28;20122;-68
2024/01/11 07:03:10;;;;;;;23.65;14.75;;;;;;;-4.33;94.48;103311.66;5085001;28;20054;-67
2024/01/11 07:05:58;;;;;;;23.83;14.98;;;;;;;-4.56;94.67;103310.59;4042631;27;10001329;-67
2024/01/11 07:08:46;;;;;;;25.65;14.50;;;;;;;-4.61;96.36;103298.59;5130867;27;20100;-70
2024/01/11 07:11:34;;;;;;;21.73;14.25;;;;;;;-4.52;98.28;103285.50;5108567;28;20051;-68
2024/01/11 07:14:23;;;;;;;24.52;14.88;;;;;;;-4.45;97.67;103303.69;5105884;27;20127;-69
2024/01/11 07:17:10;;;;;;;22.52;14.35;;;;;;;-4.36;96.50;103295.06;5120104;28;20051;-70
2024/01/11 07:19:58;;;;;;;25.08;14.77;;;;;;;-4.34;95.92;103298.47;5127466;28;20043;-65
2024/01/11 07:22:47;;;;;;;20.10;13.60;;;;;;;-4.35;96.68;103302.09;5105320;28;20054;-69
2024/01/11 07:25:35;;;;;;;25.30;14.60;;;;;;;-4.35;96.71;103307.41;5090230;28;20067;-71
2024/01/11 07:28:25;;;;;;;22.60;14.38;;;;;;;-4.36;95.46;103298.56;5116449;28;20099;-66
2024/01/11 07:31:13;;;;;;;21.30;14.15;;;;;;;-4.38;95.49;103297.81;5131251;28;20075;-66
2024/01/11 07:34:01;;;;;;;25.23;15.13;;;;;;;-4.32;96.99;103305.38;5100595;28;20777;-69
2024/01/11 07:36:50;;;;;;;25.65;14.70;;;;;;;-4.32;95.70;103318.69;5102608;28;20052;-67
2024/01/11 07:39:38;;;;;;;23.67;15.48;;;;;;;-4.29;96.91;103312.28;5105641;27;20040;-69
2024/01/11 07:42:26;;;;;;;24.13;14.70;;;;;;;-4.31;95.33;103325.69;5081166;28;20512;-70
2024/01/11 07:45:14;;;;;;;25.02;15.02;;;;;;;-4.40;95.86;103321.03;5119109;27;20061;-70
2024/01/11 07:48:03;;;;;;;23.65;15.25;;;;;;;-4.41;97.65;103313.16;5135192;27;20053;-68
2024/01/11 07:50:51;;;;;;;24.38;14.98;;;;;;;-4.45;98.85;103301.88;5126656;27;20113;-69
2024/01/11 07:53:40;;;;;;;23.88;14.80;;;;;;;-4.32;100.00;103297.38;5093312;28;20520;-69
2024/01/11 07:56:30;;;;;;;21.70;14.18;;;;;;;-4.25;99.46;103291.66;5096059;28;20083;-70
2024/01/11 07:59:18;;;;;;;24.05;14.93;;;;;;;-4.23;99.01;103287.03;5080523;28;20044;-69
2024/01/11 08:02:07;;;;;;;21.25;15.13;;;;;;;-4.22;98.61;103280.78;5093860;28;20043;-70
2024/01/11 08:04:55;;;;;;;24.65;14.52;;;;;;;-4.20;99.20;103284.19;5084145;28;20125;-69
2024/01/11 08:07:43;;;;;;;24.05;14.43;;;;;;;-4.16;99.13;103278.53;5115591;28;20529;-69
2024/01/11 08:10:31;;;;;;;23.27;14.70;;;;;;;-4.11;98.54;103279.03;5087691;28;20256;-69
2024/01/11 08:13:21;;;;;;;23.60;14.02;;;;;;;-4.17;97.87;103284.78;5100433;27;20126;-68
2024/01/11 08:16:11;;;;;;;25.30;14.90;;;;;;;-4.22;98.63;103286.94;5102664;28;20039;-68
2024/01/11 08:19:00;;;;;;;25.45;15.05;;;;;;;-4.15;99.41;103296.19;5081085;28;20044;-68
2024/01/11 08:21:49;;;;;;;23.70;14.85;;;;;;;-4.10;98.07;103286.06;5099367;28;20044;-67
2024/01/11 08:24:37;;;;;;;23.77;15.10;;;;;;;-4.01;98.75;103292.53;5085334;28;20075;-69
2024/01/11 08:27:25;;;;;;;28.38;16.15;;;;;;;-3.98;97.74;103294.13;5098610;27;20044;-70
2024/01/11 08:30:14;;;;;;;24.33;16.65;;;;;;;-4.08;97.63;103289.47;5094889;27;20566;-69
2024/01/11 08:33:03;;;;;;;23.92;15.07;;;;;;;-4.15;97.14;103290.88;5055394;28;20052;-68
2024/01/11 08:35:51;;;;;;;22.13;15.13;;;;;;;-4.32;96.61;103276.09;5081968;28;20048;-68
2024/01/11 08:38:40;;;;;;;25.50;15.23;;;;;;;-4.39;98.59;103281.97;5094201;28;20044;-69
2024/01/11 08:41:28;;;;;;;26.00;15.50;;;;;;;-4.39;98.88;103290.81;5109360;27;20040;-68
2024/01/11 08:44:17;;;;;;;24.40;14.95;;;;;;;-4.32;99.87;103302.72;5069341;28;20039;-67
2024/01/11 08:47:06;;;;;;;25.20;15.80;;;;;;;-4.30;100.00;103299.97;5080058;28;20189;-69
2024/01/11 08:49:56;;;;;;;27.98;15.18;;;;;;;-4.32;99.91;103302.72;5066743;28;20055;-69
2024/01/11 08:52:44;;;;;;;23.05;14.82;;;;;;;-4.33;100.00;103303.69;5094115;28;20052;-68
2024/01/11 08:55:32;;;;;;;23.08;14.98;;;;;;;-4.28;100.00;103304.22;5093624;27;20062;-69
2024/01/11 08:58:20;;;;;;;23.42;15.80;;;;;;;-4.34;100.00;103293.13;5118599;27;20560;-70
2024/01/11 09:01:08;;;;;;;23.75;15.82;;;;;;;-4.36;100.00;103298.56;5133215;27;20039;-69
2024/01/11 09:03:57;;;;;;;22.38;15.48;;;;;;;-4.33;100.00;103309.00;5119904;27;20039;-69
2024/01/11 09:06:46;;;;;;;25.73;16.02;;;;;;;-4.30;100.00;103306.13;5099654;28;20123;-69
2024/01/11 09:09:34;;;;;;;24.75;15.80;;;;;;;-4.23;100.00;103317.19;5100714;28;20526;-68
2024/01/11 09:12:35;;;;;;;24.40;17.17;;;;;;;-4.33;100.00;103326.75;5103165;28;20046;-68
2024/01/11 09:15:23;;;;;;;27.38;17.13;;;;;;;-4.35;100.00;103331.38;5085356;28;20079;-69
2024/01/11 09:18:11;;;;;;;23.95;16.27;;;;;;;-4.29;100.00;103334.44;5113065;28;20139;-67
2024/01/11 09:20:59;;;;;;;27.75;17.40;;;;;;;-4.26;100.00;103348.47;5112801;28;20082;-67
2024/01/11 09:23:47;;;;;;;24.83;16.73;;;;;;;-4.22;100.00;103344.66;5114231;28;20047;-68
2024/01/11 09:26:36;;;;;;;24.85;16.23;;;;;;;-4.13;100.00;103349.34;5114717;28;20043;-68
2024/01/11 09:29:24;;;;;;;26.35;18.05;;;;;;;-4.10;100.00;103349.09;5110060;27;20052;-71
2024/01/11 09:32:13;;;;;;;30.10;18.10;;;;;;;-4.12;100.00;103351.88;5071654;28;20498;-68
2024/01/11 09:35:02;;;;;;;30.23;16.98;;;;;;;-4.16;100.00;103358.38;5042824;28;20052;-69
2024/01/11 09:37:51;;;;;;;26.50;17.63;;;;;;;-4.16;100.00;103360.16;5074649;28;20043;-68
2024/01/11 09:40:39;;;;;;;31.95;18.85;;;;;;;-4.25;100.00;103358.19;5047368;28;20566;-68
2024/01/11 09:43:27;;;;;;;28.95;19.73;;;;;;;-4.14;100.00;103366.25;5027461;28;20080;-69
2024/01/11 09:46:16;;;;;;;34.28;20.73;;;;;;;-4.09;100.00;103372.09;5040314;28;20053;-69
2024/01/11 09:49:04;;;;;;;27.30;19.17;;;;;;;-3.98;100.00;103364.22;5038484;28;20044;-69
2024/01/11 09:51:56;;;;;;;31.73;20.67;;;;;;;-3.95;100.00;103369.31;5038171;28;20045;-69
2024/01/11 09:54:45;;;;;;;30.55;19.95;;;;;;;-3.92;100.00;103363.78;5020213;28;20045;-69
2024/01/11 09:57:33;;;;;;;32.88;19.45;;;;;;;-3.91;100.00;103362.81;5020033;28;20516;-69
2024/01/11 10:00:23;;;;;;;31.33;19.60;;;;;;;-3.80;100.00;103359.38;5019772;28;20057;-67
2024/01/11 10:03:11;;;;;;;29.48;19.90;;;;;;;-3.79;100.00;103370.88;5038258;28;20469;-70
2024/01/11 10:06:01;;;;;;;29.33;20.05;;;;;;;-3.75;100.00;103365.22;5038006;28;20157;-69
2024/01/11 10:08:50;;;;;;;31.67;20.00;;;;;;;-3.63;100.00;103376.81;5033679;28;20045;-69
2024/01/11 10:11:38;;;;;;;32.30;20.67;;;;;;;-3.59;100.00;103380.09;5034070;28;20525;-68
2024/01/11 10:14:27;;;;;;;29.08;20.15;;;;;;;-3.65;100.00;103392.91;5019546;28;20045;-69
2024/01/11 10:17:15;;;;;;;34.95;20.60;;;;;;;-3.64;100.00;103399.91;5032680;28;20516;-69
2024/01/11 10:20:10;;;;;;;32.25;21.20;;;;;;;-3.62;100.00;103397.16;5021110;28;20049;-69
2024/01/11 10:22:59;;;;;;;30.65;20.85;;;;;;;-3.58;100.00;103403.97;5019491;28;20049;-68
2024/01/11 10:25:47;;;;;;;29.98;20.23;;;;;;;-3.52;100.00;103398.19;5019291;28;20056;-69
2024/01/11 10:28:37;;;;;;;39.50;21.15;;;;;;;-3.49;100.00;103397.97;5032382;28;20045;-68
2024/01/11 10:31:28;;;;;;;32.25;20.90;;;;;;;-3.46;100.00;103400.41;5008125;28;20045;-70
2024/01/11 10:34:16;;;;;;;33.92;22.20;;;;;;;-3.41;100.00;103400.09;5023011;28;20045;-69
2024/01/11 10:37:04;;;;;;;33.33;20.67;;;;;;;-3.34;100.00;103400.47;5037634;28;20052;-69
2024/01/11 10:39:53;;;;;;;30.50;21.20;;;;;;;-3.28;100.00;103397.34;5058369;28;20044;-70
2024/01/11 10:42:45;;;;;;;34.97;21.83;;;;;;;-3.24;100.00;103390.84;5053389;28;20049;-69
2024/01/11 10:45:38;;;;;;;33.08;21.42;;;;;;;-3.21;100.00;103390.59;5038351;28;20045;-69
2024/01/11 10:48:26;;;;;;;35.22;21.60;;;;;;;-3.18;100.00;103379.72;5039130;28;20524;-69
2024/01/11 10:51:19;;;;;;;37.58;22.70;;;;;;;-3.12;99.38;103378.44;5038883;28;20104;-68
2024/01/11 10:54:07;;;;;;;33.42;22.10;;;;;;;-3.07;98.16;103382.44;5037628;28;20083;-69
2024/01/11 10:56:55;;;;;;;32.45;22.48;;;;;;;-3.00;98.06;103389.00;5031970;28;20045;-67
2024/01/11 10:59:44;;;;;;;38.20;22.38;;;;;;;-2.94;97.65;103381.50;5005430;28;20398;-67
2024/01/11 11:02:33;;;;;;;32.25;21.48;;;;;;;-2.90;97.28;103388.31;5019460;28;20103;-68
2024/01/11 11:05:23;;;;;;;31.23;21.27;;;;;;;-2.84;96.02;103388.72;5061765;28;20049;-68
2024/01/11 11:08:12;;;;;;;39.50;24.90;;;;;;;-2.82;95.42;103402.78;5041604;28;20115;-67
2024/01/11 11:11:06;;;;;;;37.75;23.92;;;;;;;-2.75;94.44;103402.31;5040828;28;20547;-67
2024/01/11 11:13:55;;;;;;;34.60;23.77;;;;;;;-2.73;94.85;103398.56;5054234;28;20053;-67
2024/01/11 11:16:43;;;;;;;35.53;24.42;;;;;;;-2.70;95.24;103395.66;5053910;28;20140;-68
2024/01/11 11:19:31;;;;;;;37.70;24.40;;;;;;;-2.67;93.78;103403.44;5030535;28;20136;-68
2024/01/11 11:22:20;;;;;;;35.70;24.95;;;;;;;-2.65;93.81;103395.31;5034087;28;20041;-68
2024/01/11 11:25:11;;;;;;;38.88;26.85;;;;;;;-2.63;94.87;103396.88;5035103;28;20089;-68
2024/01/11 11:28:03;;;;;;;34.45;23.13;;;;;;;-2.59;95.25;103405.53;5021231;28;20053;-67
2024/01/11 11:30:53;;;;;;;36.55;24.42;;;;;;;-2.57;95.55;103396.44;5036628;28;20076;-66
2024/01/11 11:33:42;;;;;;;34.70;22.15;;;;;;;-2.54;95.52;103411.34;4336214;28;10000837;-69
2024/01/11 11:36:30;;;;;;;36.80;23.95;;;;;;;-2.51;95.85;103415.59;5070312;28;20508;-66
2024/01/11 11:39:19;;;;;;;37.55;24.85;;;;;;;-2.51;94.29;103407.59;5061868;28;20049;-68
2024/01/11 11:42:08;;;;;;;34.58;24.42;;;;;;;-2.48;94.85;103415.38;5051710;28;20049;-67
2024/01/11 11:44:57;;;;;;;36.65;23.13;;;;;;;-2.46;94.57;103430.28;5062282;28;20047;-67
2024/01/11 11:47:46;;;;;;;35.83;24.42;;;;;;;-2.40;93.94;103437.00;5062584;28;20086;-69
2024/01/11 11:50:35;;;;;;;34.20;23.48;;;;;;;-2.40;92.79;103431.66;5069669;28;20106;-66
2024/01/11 11:53:23;;;;;;;35.60;24.48;;;;;;;-2.39;93.00;103431.53;5057915;28;20052;-63
2024/01/11 11:56:12;;;;;;;35.70;25.13;;;;;;;-2.36;92.64;103417.09;5076504;28;20051;-69
2024/01/11 11:59:01;;;;;;;36.25;24.25;;;;;;;-2.32;92.82;103415.88;5062394;28;20049;-69
2024/01/11 12:01:49;;;;;;;35.97;24.17;;;;;;;-2.29;91.98;103407.63;5064642;28;20049;-69
2024/01/11 12:04:39;;;;;;;36.92;25.05;;;;;;;-2.29;92.53;103415.66;5047371;28;20188;-69
2024/01/11 12:07:28;;;;;;;36.88;24.17;;;;;;;-2.29;92.11;103409.47;5049414;28;20052;-69
2024/01/11 12:10:16;;;;;;;33.20;23.75;;;;;;;-2.28;91.63;103392.50;5033870;28;20505;-68
2024/01/11 12:13:04;;;;;;;36.95;23.90;;;;;;;-2.25;92.44;103390.41;5036809;28;20107;-68
2024/01/11 12:15:52;;;;;;;35.03;24.33;;;;;;;-2.21;90.94;103393.72;5052982;28;20127;-69
2024/01/11 12:18:41;;;;;;;31.73;22.45;;;;;;;-2.18;91.40;103386.28;5037969;28;20056;-69
2024/01/11 12:21:30;;;;;;;33.53;22.60;;;;;;;-2.16;91.12;103379.00;5048919;28;20448;-69
2024/01/11 12:24:21;;;;;;;32.00;22.27;;;;;;;-2.11;91.40;103386.66;5053257;28;20041;-68
2024/01/11 12:27:09;;;;;;;33.33;24.05;;;;;;;-2.07;92.93;103379.25;5023739;28;20075;-68
2024/01/11 12:29:57;;;;;;;34.45;23.50;;;;;;;-2.06;93.04;103384.47;5051064;28;20045;-69
2024/01/11 12:32:47;;;;;;;34.33;24.85;;;;;;;-1.99;97.54;103374.16;5027795;28;20049;-69
2024/01/11 12:35:36;;;;;;;33.55;23.95;;;;;;;-1.99;97.88;103380.34;5049449;28;20068;-69
2024/01/11 12:38:25;;;;;;;33.97;23.90;;;;;;;-2.01;97.19;103381.44;5051496;28;20452;-69
2024/01/11 12:41:13;;;;;;;32.95;23.80;;;;;;;-1.99;100.00;103376.84;5024734;28;20045;-69
2024/01/11 12:44:02;;;;;;;29.73;22.02;;;;;;;-1.99;100.00;103377.69;5018587;28;20049;-68